sensor_id;sensor_type;location;lat;lon;timestamp;P1;durP1;ratioP1;P2;durP2;ratioP2
54935;SDS011;40838;50.676;7.838;2023-03-01T00:01:02;24.38;;;10.93;;
54935;SDS011;40838;50.676;7.838;2023-03-01T00:03:30;22.42;;;9.88;;
54935;SDS011;40838;50.676;7.838;2023-03-01T00:05:57;22.10;;;10.63;;
54935;SDS011;40838;50.676;7.838;2023-03-01T00:08:24;19.77;;;10.35;;
54935;SDS011;40838;50.676;7.838;2023-03-01T00:10:59;17.73;;;9.15;;
54935;SDS011;40838;50.676;7.838;2023-03-01T00:13:27;22.42;;;10.35;;
54935;SDS011;40838;50.676;7.838;2023-03-01T00:15:54;22.52;;;10.45;;
54935;SDS011;40838;50.676;7.838;2023-03-01T00:18:22;35.13;;;14.45;;
54935;SDS011;40838;50.676;7.838;2023-03-01T00:20:49;35.15;;;15.60;;
54935;SDS011;40838;50.676;7.838;2023-03-01T00:23:17;36.80;;;15.10;;
54935;SDS011;40838;50.676;7.838;2023-03-01T00:25:44;78.60;;;28.10;;
54935;SDS011;40838;50.676;7.838;2023-03-01T00:28:11;62.92;;;20.20;;
54935;SDS011;40838;50.676;7.838;2023-03-01T00:30:38;29.80;;;13.48;;
54935;SDS011;40838;50.676;7.838;2023-03-01T00:33:04;89.70;;;32.40;;
54935;SDS011;40838;50.676;7.838;2023-03-01T00:35:33;18.17;;;10.00;;
54935;SDS011;40838;50.676;7.838;2023-03-01T00:38:00;25.95;;;12.07;;
54935;SDS011;40838;50.676;7.838;2023-03-01T00:40:28;20.60;;;11.43;;
54935;SDS011;40838;50.676;7.838;2023-03-01T00:42:55;23.75;;;11.82;;
54935;SDS011;40838;50.676;7.838;2023-03-01T00:45:22;26.00;;;12.50;;
54935;SDS011;40838;50.676;7.838;2023-03-01T00:47:49;26.73;;;13.32;;
54935;SDS011;40838;50.676;7.838;2023-03-01T00:50:16;25.05;;;11.70;;
54935;SDS011;40838;50.676;7.838;2023-03-01T00:52:51;35.65;;;14.80;;
54935;SDS011;40838;50.676;7.838;2023-03-01T00:55:19;23.58;;;11.90;;
54935;SDS011;40838;50.676;7.838;2023-03-01T00:57:46;21.58;;;11.70;;
54935;SDS011;40838;50.676;7.838;2023-03-01T01:00:13;23.50;;;12.07;;
54935;SDS011;40838;50.676;7.838;2023-03-01T01:02:44;26.90;;;11.43;;
54935;SDS011;40838;50.676;7.838;2023-03-01T01:05:11;24.15;;;12.13;;
54935;SDS011;40838;50.676;7.838;2023-03-01T01:07:38;42.70;;;14.18;;
54935;SDS011;40838;50.676;7.838;2023-03-01T01:10:07;27.23;;;13.43;;
54935;SDS011;40838;50.676;7.838;2023-03-01T01:12:42;25.02;;;12.30;;
54935;SDS011;40838;50.676;7.838;2023-03-01T01:15:10;24.42;;;11.60;;
54935;SDS011;40838;50.676;7.838;2023-03-01T01:17:48;21.55;;;10.45;;
54935;SDS011;40838;50.676;7.838;2023-03-01T01:20:17;20.77;;;11.18;;
54935;SDS011;40838;50.676;7.838;2023-03-01T01:22:44;24.95;;;11.52;;
54935;SDS011;40838;50.676;7.838;2023-03-01T01:25:12;21.35;;;10.77;;
54935;SDS011;40838;50.676;7.838;2023-03-01T01:27:39;27.17;;;12.75;;
54935;SDS011;40838;50.676;7.838;2023-03-01T01:30:06;23.52;;;10.77;;
54935;SDS011;40838;50.676;7.838;2023-03-01T01:32:34;21.27;;;11.52;;
54935;SDS011;40838;50.676;7.838;2023-03-01T01:35:01;25.27;;;11.20;;
54935;SDS011;40838;50.676;7.838;2023-03-01T01:37:28;23.83;;;11.07;;
54935;SDS011;40838;50.676;7.838;2023-03-01T01:39:56;21.80;;;10.63;;
54935;SDS011;40838;50.676;7.838;2023-03-01T01:42:26;20.95;;;10.38;;
54935;SDS011;40838;50.676;7.838;2023-03-01T01:47:58;20.95;;;10.50;;
54935;SDS011;40838;50.676;7.838;2023-03-01T01:50:29;26.10;;;11.68;;
54935;SDS011;40838;50.676;7.838;2023-03-01T01:53:04;22.83;;;11.18;;
54935;SDS011;40838;50.676;7.838;2023-03-01T01:55:33;23.65;;;11.75;;
54935;SDS011;40838;50.676;7.838;2023-03-01T01:58:05;23.27;;;11.68;;
54935;SDS011;40838;50.676;7.838;2023-03-01T02:00:35;21.73;;;11.13;;
54935;SDS011;40838;50.676;7.838;2023-03-01T02:03:05;25.05;;;12.48;;
54935;SDS011;40838;50.676;7.838;2023-03-01T02:05:37;24.92;;;11.88;;
54935;SDS011;40838;50.676;7.838;2023-03-01T02:08:10;22.90;;;12.02;;
54935;SDS011;40838;50.676;7.838;2023-03-01T02:10:40;28.63;;;11.40;;
54935;SDS011;40838;50.676;7.838;2023-03-01T02:13:10;21.42;;;10.57;;
54935;SDS011;40838;50.676;7.838;2023-03-01T02:15:39;26.05;;;11.73;;
54935;SDS011;40838;50.676;7.838;2023-03-01T02:18:10;30.00;;;12.40;;
54935;SDS011;40838;50.676;7.838;2023-03-01T02:20:43;22.65;;;10.93;;
54935;SDS011;40838;50.676;7.838;2023-03-01T02:23:17;22.80;;;11.13;;
54935;SDS011;40838;50.676;7.838;2023-03-01T02:25:46;26.85;;;12.07;;
54935;SDS011;40838;50.676;7.838;2023-03-01T02:31:08;25.67;;;11.98;;
54935;SDS011;40838;50.676;7.838;2023-03-01T02:33:53;25.25;;;11.20;;
54935;SDS011;40838;50.676;7.838;2023-03-01T02:36:35;22.65;;;12.07;;
54935;SDS011;40838;50.676;7.838;2023-03-01T02:39:06;25.15;;;11.50;;
54935;SDS011;40838;50.676;7.838;2023-03-01T02:41:41;31.48;;;12.55;;
54935;SDS011;40838;50.676;7.838;2023-03-01T02:44:13;25.08;;;12.07;;
54935;SDS011;40838;50.676;7.838;2023-03-01T02:46:44;27.10;;;12.57;;
54935;SDS011;40838;50.676;7.838;2023-03-01T02:49:18;27.77;;;13.05;;
54935;SDS011;40838;50.676;7.838;2023-03-01T02:51:48;28.33;;;12.27;;
54935;SDS011;40838;50.676;7.838;2023-03-01T02:54:27;24.10;;;12.40;;
54935;SDS011;40838;50.676;7.838;2023-03-01T02:56:57;22.42;;;12.40;;
54935;SDS011;40838;50.676;7.838;2023-03-01T02:59:29;27.67;;;12.85;;
54935;SDS011;40838;50.676;7.838;2023-03-01T03:02:06;31.70;;;13.57;;
54935;SDS011;40838;50.676;7.838;2023-03-01T03:04:33;25.40;;;12.07;;
54935;SDS011;40838;50.676;7.838;2023-03-01T03:07:01;25.85;;;11.85;;
54935;SDS011;40838;50.676;7.838;2023-03-01T03:09:27;23.58;;;13.05;;
54935;SDS011;40838;50.676;7.838;2023-03-01T03:11:55;27.38;;;11.13;;
54935;SDS011;40838;50.676;7.838;2023-03-01T03:14:22;24.08;;;11.57;;
54935;SDS011;40838;50.676;7.838;2023-03-01T03:16:50;26.45;;;11.55;;
54935;SDS011;40838;50.676;7.838;2023-03-01T03:19:17;24.70;;;12.20;;
54935;SDS011;40838;50.676;7.838;2023-03-01T03:21:45;32.53;;;12.85;;
54935;SDS011;40838;50.676;7.838;2023-03-01T03:24:14;30.33;;;14.02;;
54935;SDS011;40838;50.676;7.838;2023-03-01T03:26:44;28.67;;;14.40;;
54935;SDS011;40838;50.676;7.838;2023-03-01T03:29:18;33.60;;;14.23;;
54935;SDS011;40838;50.676;7.838;2023-03-01T03:31:47;29.58;;;13.45;;
54935;SDS011;40838;50.676;7.838;2023-03-01T03:34:17;27.38;;;13.50;;
54935;SDS011;40838;50.676;7.838;2023-03-01T03:36:44;27.98;;;13.13;;
54935;SDS011;40838;50.676;7.838;2023-03-01T03:39:13;31.65;;;13.75;;
54935;SDS011;40838;50.676;7.838;2023-03-01T03:41:40;29.52;;;14.40;;
54935;SDS011;40838;50.676;7.838;2023-03-01T03:44:06;31.55;;;14.07;;
54935;SDS011;40838;50.676;7.838;2023-03-01T03:46:33;33.10;;;13.32;;
54935;SDS011;40838;50.676;7.838;2023-03-01T03:49:02;33.33;;;13.52;;
54935;SDS011;40838;50.676;7.838;2023-03-01T03:51:30;33.45;;;13.48;;
54935;SDS011;40838;50.676;7.838;2023-03-01T03:53:58;28.33;;;13.48;;
54935;SDS011;40838;50.676;7.838;2023-03-01T03:56:25;41.55;;;17.33;;
54935;SDS011;40838;50.676;7.838;2023-03-01T03:58:52;34.38;;;15.43;;
54935;SDS011;40838;50.676;7.838;2023-03-01T04:01:25;32.55;;;15.18;;
54935;SDS011;40838;50.676;7.838;2023-03-01T04:03:52;36.20;;;14.90;;
54935;SDS011;40838;50.676;7.838;2023-03-01T04:06:21;28.85;;;13.85;;
54935;SDS011;40838;50.676;7.838;2023-03-01T04:08:49;33.22;;;14.43;;
54935;SDS011;40838;50.676;7.838;2023-03-01T04:11:23;34.80;;;14.55;;
54935;SDS011;40838;50.676;7.838;2023-03-01T04:13:53;29.80;;;14.05;;
54935;SDS011;40838;50.676;7.838;2023-03-01T04:16:21;32.15;;;14.00;;
54935;SDS011;40838;50.676;7.838;2023-03-01T04:18:48;35.60;;;15.00;;
54935;SDS011;40838;50.676;7.838;2023-03-01T04:21:15;30.15;;;13.85;;
54935;SDS011;40838;50.676;7.838;2023-03-01T04:23:42;37.13;;;14.80;;
54935;SDS011;40838;50.676;7.838;2023-03-01T04:26:13;31.75;;;15.63;;
54935;SDS011;40838;50.676;7.838;2023-03-01T04:28:42;31.95;;;14.52;;
54935;SDS011;40838;50.676;7.838;2023-03-01T04:31:11;31.73;;;15.48;;
54935;SDS011;40838;50.676;7.838;2023-03-01T04:33:42;31.98;;;14.70;;
54935;SDS011;40838;50.676;7.838;2023-03-01T04:36:11;29.33;;;13.75;;
54935;SDS011;40838;50.676;7.838;2023-03-01T04:38:40;29.67;;;13.38;;
54935;SDS011;40838;50.676;7.838;2023-03-01T04:41:08;29.05;;;14.23;;
54935;SDS011;40838;50.676;7.838;2023-03-01T04:43:39;32.33;;;14.48;;
54935;SDS011;40838;50.676;7.838;2023-03-01T04:46:06;33.88;;;15.48;;
54935;SDS011;40838;50.676;7.838;2023-03-01T04:48:35;34.13;;;15.55;;
54935;SDS011;40838;50.676;7.838;2023-03-01T04:51:02;31.10;;;14.63;;
54935;SDS011;40838;50.676;7.838;2023-03-01T04:53:31;32.05;;;14.85;;
54935;SDS011;40838;50.676;7.838;2023-03-01T04:55:58;32.92;;;15.02;;
54935;SDS011;40838;50.676;7.838;2023-03-01T04:58:25;33.00;;;15.18;;
54935;SDS011;40838;50.676;7.838;2023-03-01T05:00:55;32.83;;;15.23;;
54935;SDS011;40838;50.676;7.838;2023-03-01T05:03:22;29.30;;;14.05;;
54935;SDS011;40838;50.676;7.838;2023-03-01T05:05:49;28.98;;;13.35;;
54935;SDS011;40838;50.676;7.838;2023-03-01T05:08:17;31.17;;;13.10;;
54935;SDS011;40838;50.676;7.838;2023-03-01T05:10:46;31.80;;;15.02;;
54935;SDS011;40838;50.676;7.838;2023-03-01T05:13:15;29.20;;;13.82;;
54935;SDS011;40838;50.676;7.838;2023-03-01T05:15:46;28.55;;;13.50;;
54935;SDS011;40838;50.676;7.838;2023-03-01T05:18:21;25.33;;;12.80;;
54935;SDS011;40838;50.676;7.838;2023-03-01T05:20:51;26.13;;;12.68;;
54935;SDS011;40838;50.676;7.838;2023-03-01T05:23:21;26.45;;;12.27;;
54935;SDS011;40838;50.676;7.838;2023-03-01T05:25:48;29.30;;;14.00;;
54935;SDS011;40838;50.676;7.838;2023-03-01T05:28:17;27.02;;;13.77;;
54935;SDS011;40838;50.676;7.838;2023-03-01T05:30:54;26.17;;;13.05;;
54935;SDS011;40838;50.676;7.838;2023-03-01T05:33:25;33.88;;;12.80;;
54935;SDS011;40838;50.676;7.838;2023-03-01T05:35:52;24.73;;;11.57;;
54935;SDS011;40838;50.676;7.838;2023-03-01T05:38:20;27.63;;;12.98;;
54935;SDS011;40838;50.676;7.838;2023-03-01T05:40:48;23.48;;;11.88;;
54935;SDS011;40838;50.676;7.838;2023-03-01T05:43:16;24.85;;;12.15;;
54935;SDS011;40838;50.676;7.838;2023-03-01T05:45:43;25.20;;;12.60;;
54935;SDS011;40838;50.676;7.838;2023-03-01T05:48:11;29.40;;;12.98;;
54935;SDS011;40838;50.676;7.838;2023-03-01T05:50:41;25.80;;;12.23;;
54935;SDS011;40838;50.676;7.838;2023-03-01T05:53:10;28.63;;;12.43;;
54935;SDS011;40838;50.676;7.838;2023-03-01T05:55:38;28.63;;;13.70;;
54935;SDS011;40838;50.676;7.838;2023-03-01T05:58:06;29.23;;;12.20;;
54935;SDS011;40838;50.676;7.838;2023-03-01T06:00:35;26.73;;;12.02;;
54935;SDS011;40838;50.676;7.838;2023-03-01T06:03:02;27.42;;;12.82;;
54935;SDS011;40838;50.676;7.838;2023-03-01T06:05:30;32.25;;;13.93;;
54935;SDS011;40838;50.676;7.838;2023-03-01T06:07:59;22.35;;;11.55;;
54935;SDS011;40838;50.676;7.838;2023-03-01T06:10:27;26.75;;;13.77;;
54935;SDS011;40838;50.676;7.838;2023-03-01T06:12:55;33.38;;;13.95;;
54935;SDS011;40838;50.676;7.838;2023-03-01T06:15:26;31.05;;;13.60;;
54935;SDS011;40838;50.676;7.838;2023-03-01T06:17:54;36.33;;;15.23;;
54935;SDS011;40838;50.676;7.838;2023-03-01T06:20:23;29.60;;;13.77;;
54935;SDS011;40838;50.676;7.838;2023-03-01T06:22:51;27.30;;;13.05;;
54935;SDS011;40838;50.676;7.838;2023-03-01T06:25:21;28.05;;;13.38;;
54935;SDS011;40838;50.676;7.838;2023-03-01T06:27:50;34.90;;;14.10;;
54935;SDS011;40838;50.676;7.838;2023-03-01T06:30:19;34.70;;;14.95;;
54935;SDS011;40838;50.676;7.838;2023-03-01T06:32:47;32.60;;;15.15;;
54935;SDS011;40838;50.676;7.838;2023-03-01T06:35:15;35.25;;;16.48;;
54935;SDS011;40838;50.676;7.838;2023-03-01T06:37:43;30.85;;;14.38;;
54935;SDS011;40838;50.676;7.838;2023-03-01T06:40:11;34.13;;;14.38;;
54935;SDS011;40838;50.676;7.838;2023-03-01T06:42:42;41.55;;;16.40;;
54935;SDS011;40838;50.676;7.838;2023-03-01T06:45:16;32.22;;;14.40;;
54935;SDS011;40838;50.676;7.838;2023-03-01T06:47:44;35.60;;;14.63;;
54935;SDS011;40838;50.676;7.838;2023-03-01T06:50:11;34.72;;;15.75;;
54935;SDS011;40838;50.676;7.838;2023-03-01T06:52:39;37.72;;;15.73;;
54935;SDS011;40838;50.676;7.838;2023-03-01T06:55:09;32.40;;;13.60;;
54935;SDS011;40838;50.676;7.838;2023-03-01T06:57:37;31.05;;;14.32;;
54935;SDS011;40838;50.676;7.838;2023-03-01T07:00:06;27.40;;;13.25;;
54935;SDS011;40838;50.676;7.838;2023-03-01T07:02:36;36.00;;;15.35;;
54935;SDS011;40838;50.676;7.838;2023-03-01T07:05:03;31.65;;;14.02;;
54935;SDS011;40838;50.676;7.838;2023-03-01T07:07:30;34.60;;;15.77;;
54935;SDS011;40838;50.676;7.838;2023-03-01T07:09:58;31.60;;;13.65;;
54935;SDS011;40838;50.676;7.838;2023-03-01T07:12:26;31.58;;;14.80;;
54935;SDS011;40838;50.676;7.838;2023-03-01T07:14:52;40.40;;;17.35;;
54935;SDS011;40838;50.676;7.838;2023-03-01T07:17:21;51.22;;;25.08;;
54935;SDS011;40838;50.676;7.838;2023-03-01T07:19:49;40.67;;;19.52;;
54935;SDS011;40838;50.676;7.838;2023-03-01T07:22:15;43.25;;;19.83;;
54935;SDS011;40838;50.676;7.838;2023-03-01T07:24:43;41.58;;;19.20;;
54935;SDS011;40838;50.676;7.838;2023-03-01T07:27:10;29.80;;;14.75;;
54935;SDS011;40838;50.676;7.838;2023-03-01T07:29:37;32.92;;;15.27;;
54935;SDS011;40838;50.676;7.838;2023-03-01T07:32:04;28.00;;;14.48;;
54935;SDS011;40838;50.676;7.838;2023-03-01T07:34:33;28.38;;;14.73;;
54935;SDS011;40838;50.676;7.838;2023-03-01T07:37:00;33.47;;;15.77;;
54935;SDS011;40838;50.676;7.838;2023-03-01T07:39:27;29.23;;;14.52;;
54935;SDS011;40838;50.676;7.838;2023-03-01T07:41:54;27.48;;;13.40;;
54935;SDS011;40838;50.676;7.838;2023-03-01T07:44:21;31.75;;;13.98;;
54935;SDS011;40838;50.676;7.838;2023-03-01T07:46:48;22.85;;;12.38;;
54935;SDS011;40838;50.676;7.838;2023-03-01T07:49:16;30.98;;;13.75;;
54935;SDS011;40838;50.676;7.838;2023-03-01T07:51:44;25.33;;;12.38;;
54935;SDS011;40838;50.676;7.838;2023-03-01T07:54:11;28.17;;;13.73;;
54935;SDS011;40838;50.676;7.838;2023-03-01T07:56:38;22.42;;;12.35;;
54935;SDS011;40838;50.676;7.838;2023-03-01T07:59:05;24.65;;;11.77;;
54935;SDS011;40838;50.676;7.838;2023-03-01T08:01:39;21.63;;;11.88;;
54935;SDS011;40838;50.676;7.838;2023-03-01T08:04:07;28.60;;;14.32;;
54935;SDS011;40838;50.676;7.838;2023-03-01T08:06:40;24.92;;;14.75;;
54935;SDS011;40838;50.676;7.838;2023-03-01T08:09:18;25.67;;;14.15;;
54935;SDS011;40838;50.676;7.838;2023-03-01T08:11:46;25.23;;;13.38;;
54935;SDS011;40838;50.676;7.838;2023-03-01T08:14:14;26.63;;;14.13;;
54935;SDS011;40838;50.676;7.838;2023-03-01T08:16:41;28.27;;;14.32;;
54935;SDS011;40838;50.676;7.838;2023-03-01T08:19:09;28.73;;;14.02;;
54935;SDS011;40838;50.676;7.838;2023-03-01T08:21:41;24.55;;;13.85;;
54935;SDS011;40838;50.676;7.838;2023-03-01T08:24:14;23.02;;;14.13;;
54935;SDS011;40838;50.676;7.838;2023-03-01T08:26:42;36.05;;;16.30;;
54935;SDS011;40838;50.676;7.838;2023-03-01T08:31:57;22.80;;;11.77;;
54935;SDS011;40838;50.676;7.838;2023-03-01T08:34:24;17.55;;;10.35;;
54935;SDS011;40838;50.676;7.838;2023-03-01T08:36:52;18.98;;;10.88;;
54935;SDS011;40838;50.676;7.838;2023-03-01T08:39:19;22.25;;;12.00;;
54935;SDS011;40838;50.676;7.838;2023-03-01T08:41:48;19.58;;;10.88;;
54935;SDS011;40838;50.676;7.838;2023-03-01T08:44:15;19.83;;;10.25;;
54935;SDS011;40838;50.676;7.838;2023-03-01T08:46:42;24.52;;;14.07;;
54935;SDS011;40838;50.676;7.838;2023-03-01T08:49:16;20.52;;;12.07;;
54935;SDS011;40838;50.676;7.838;2023-03-01T08:51:44;21.85;;;12.80;;
54935;SDS011;40838;50.676;7.838;2023-03-01T08:54:15;15.30;;;9.02;;
54935;SDS011;40838;50.676;7.838;2023-03-01T08:56:43;16.13;;;9.90;;
54935;SDS011;40838;50.676;7.838;2023-03-01T08:59:17;15.63;;;9.73;;
54935;SDS011;40838;50.676;7.838;2023-03-01T09:01:44;16.05;;;8.10;;
54935;SDS011;40838;50.676;7.838;2023-03-01T09:04:15;13.80;;;8.13;;
54935;SDS011;40838;50.676;7.838;2023-03-01T09:06:42;12.65;;;7.32;;
54935;SDS011;40838;50.676;7.838;2023-03-01T09:09:16;16.88;;;8.68;;
54935;SDS011;40838;50.676;7.838;2023-03-01T09:11:52;16.13;;;8.10;;
54935;SDS011;40838;50.676;7.838;2023-03-01T09:14:20;12.98;;;7.35;;
54935;SDS011;40838;50.676;7.838;2023-03-01T09:16:46;12.30;;;7.03;;
54935;SDS011;40838;50.676;7.838;2023-03-01T09:19:15;13.70;;;7.30;;
54935;SDS011;40838;50.676;7.838;2023-03-01T09:21:43;13.68;;;7.28;;
54935;SDS011;40838;50.676;7.838;2023-03-01T09:24:18;13.63;;;7.38;;
54935;SDS011;40838;50.676;7.838;2023-03-01T09:26:46;13.82;;;8.05;;
54935;SDS011;40838;50.676;7.838;2023-03-01T09:29:16;14.40;;;8.48;;
54935;SDS011;40838;50.676;7.838;2023-03-01T09:31:44;15.45;;;7.57;;
54935;SDS011;40838;50.676;7.838;2023-03-01T09:34:20;12.73;;;7.05;;
54935;SDS011;40838;50.676;7.838;2023-03-01T09:36:48;15.43;;;7.00;;
54935;SDS011;40838;50.676;7.838;2023-03-01T09:39:16;16.25;;;7.72;;
54935;SDS011;40838;50.676;7.838;2023-03-01T09:41:54;12.05;;;7.10;;
54935;SDS011;40838;50.676;7.838;2023-03-01T09:44:31;13.70;;;6.72;;
54935;SDS011;40838;50.676;7.838;2023-03-01T09:47:08;15.23;;;7.05;;
54935;SDS011;40838;50.676;7.838;2023-03-01T09:49:43;14.45;;;7.90;;
54935;SDS011;40838;50.676;7.838;2023-03-01T09:52:19;13.05;;;7.55;;
54935;SDS011;40838;50.676;7.838;2023-03-01T09:54:56;10.27;;;6.47;;
54935;SDS011;40838;50.676;7.838;2023-03-01T09:57:26;14.48;;;6.75;;
54935;SDS011;40838;50.676;7.838;2023-03-01T10:00:09;13.43;;;7.15;;
54935;SDS011;40838;50.676;7.838;2023-03-01T10:02:49;13.38;;;6.95;;
54935;SDS011;40838;50.676;7.838;2023-03-01T10:05:26;10.85;;;5.97;;
54935;SDS011;40838;50.676;7.838;2023-03-01T10:08:03;12.00;;;6.47;;
54935;SDS011;40838;50.676;7.838;2023-03-01T10:10:47;11.68;;;6.50;;
54935;SDS011;40838;50.676;7.838;2023-03-01T10:13:16;11.70;;;6.70;;
54935;SDS011;40838;50.676;7.838;2023-03-01T10:15:47;14.52;;;6.75;;
54935;SDS011;40838;50.676;7.838;2023-03-01T10:18:22;9.30;;;5.60;;
54935;SDS011;40838;50.676;7.838;2023-03-01T10:20:52;10.32;;;6.05;;
54935;SDS011;40838;50.676;7.838;2023-03-01T10:23:23;8.90;;;5.90;;
54935;SDS011;40838;50.676;7.838;2023-03-01T10:26:06;11.70;;;5.85;;
54935;SDS011;40838;50.676;7.838;2023-03-01T10:28:41;8.52;;;5.63;;
54935;SDS011;40838;50.676;7.838;2023-03-01T10:31:17;9.93;;;5.80;;
54935;SDS011;40838;50.676;7.838;2023-03-01T10:33:50;12.00;;;6.03;;
54935;SDS011;40838;50.676;7.838;2023-03-01T10:36:20;11.38;;;6.43;;
54935;SDS011;40838;50.676;7.838;2023-03-01T10:38:48;9.55;;;5.45;;
54935;SDS011;40838;50.676;7.838;2023-03-01T10:41:17;8.18;;;5.22;;
54935;SDS011;40838;50.676;7.838;2023-03-01T10:43:45;9.65;;;6.05;;
54935;SDS011;40838;50.676;7.838;2023-03-01T10:46:26;10.23;;;5.93;;
54935;SDS011;40838;50.676;7.838;2023-03-01T10:49:12;10.93;;;5.88;;
54935;SDS011;40838;50.676;7.838;2023-03-01T10:51:45;9.68;;;5.18;;
54935;SDS011;40838;50.676;7.838;2023-03-01T10:54:17;9.27;;;5.35;;
54935;SDS011;40838;50.676;7.838;2023-03-01T10:56:47;10.32;;;5.32;;
54935;SDS011;40838;50.676;7.838;2023-03-01T10:59:22;10.43;;;5.63;;
54935;SDS011;40838;50.676;7.838;2023-03-01T11:02:04;11.88;;;6.15;;
54935;SDS011;40838;50.676;7.838;2023-03-01T11:05:00;9.23;;;5.57;;
54935;SDS011;40838;50.676;7.838;2023-03-01T11:07:29;8.85;;;5.50;;
54935;SDS011;40838;50.676;7.838;2023-03-01T11:09:58;11.07;;;5.45;;
54935;SDS011;40838;50.676;7.838;2023-03-01T11:12:29;10.30;;;6.45;;
54935;SDS011;40838;50.676;7.838;2023-03-01T11:14:57;11.63;;;5.90;;
54935;SDS011;40838;50.676;7.838;2023-03-01T11:17:25;10.25;;;6.63;;
54935;SDS011;40838;50.676;7.838;2023-03-01T11:20:05;11.93;;;5.97;;
54935;SDS011;40838;50.676;7.838;2023-03-01T11:22:42;17.45;;;6.47;;
54935;SDS011;40838;50.676;7.838;2023-03-01T11:25:14;8.98;;;5.63;;
54935;SDS011;40838;50.676;7.838;2023-03-01T11:27:44;10.68;;;5.45;;
54935;SDS011;40838;50.676;7.838;2023-03-01T11:30:15;11.55;;;6.03;;
54935;SDS011;40838;50.676;7.838;2023-03-01T11:32:50;10.75;;;6.10;;
54935;SDS011;40838;50.676;7.838;2023-03-01T11:35:30;8.18;;;5.47;;
54935;SDS011;40838;50.676;7.838;2023-03-01T11:38:03;8.90;;;5.45;;
54935;SDS011;40838;50.676;7.838;2023-03-01T11:40:44;11.05;;;5.55;;
54935;SDS011;40838;50.676;7.838;2023-03-01T11:43:15;10.88;;;5.65;;
54935;SDS011;40838;50.676;7.838;2023-03-01T11:45:54;10.48;;;5.75;;
54935;SDS011;40838;50.676;7.838;2023-03-01T11:48:48;12.65;;;5.32;;
54935;SDS011;40838;50.676;7.838;2023-03-01T11:51:31;8.82;;;4.97;;
54935;SDS011;40838;50.676;7.838;2023-03-01T11:54:20;10.20;;;5.05;;
54935;SDS011;40838;50.676;7.838;2023-03-01T11:57:03;7.88;;;4.80;;
54935;SDS011;40838;50.676;7.838;2023-03-01T12:02:40;10.70;;;5.13;;
54935;SDS011;40838;50.676;7.838;2023-03-01T12:05:21;8.48;;;5.00;;
54935;SDS011;40838;50.676;7.838;2023-03-01T12:08:06;9.30;;;5.30;;
54935;SDS011;40838;50.676;7.838;2023-03-01T12:10:43;7.90;;;4.93;;
54935;SDS011;40838;50.676;7.838;2023-03-01T12:13:36;10.43;;;5.40;;
54935;SDS011;40838;50.676;7.838;2023-03-01T12:16:30;8.70;;;4.65;;
54935;SDS011;40838;50.676;7.838;2023-03-01T12:19:24;7.75;;;4.90;;
54935;SDS011;40838;50.676;7.838;2023-03-01T12:22:12;7.93;;;4.50;;
54935;SDS011;40838;50.676;7.838;2023-03-01T12:31:00;9.40;;;5.07;;
54935;SDS011;40838;50.676;7.838;2023-03-01T12:33:43;6.45;;;4.40;;
54935;SDS011;40838;50.676;7.838;2023-03-01T12:36:18;7.63;;;4.45;;
54935;SDS011;40838;50.676;7.838;2023-03-01T12:38:59;7.47;;;4.43;;
54935;SDS011;40838;50.676;7.838;2023-03-01T12:41:47;6.30;;;3.90;;
54935;SDS011;40838;50.676;7.838;2023-03-01T12:44:31;8.70;;;3.80;;
54935;SDS011;40838;50.676;7.838;2023-03-01T12:47:14;6.95;;;3.97;;
54935;SDS011;40838;50.676;7.838;2023-03-01T12:49:54;8.15;;;3.80;;
54935;SDS011;40838;50.676;7.838;2023-03-01T12:52:26;8.80;;;4.22;;
54935;SDS011;40838;50.676;7.838;2023-03-01T12:54:57;8.13;;;4.22;;
54935;SDS011;40838;50.676;7.838;2023-03-01T12:57:36;9.40;;;4.57;;
54935;SDS011;40838;50.676;7.838;2023-03-01T13:00:11;8.15;;;4.60;;
54935;SDS011;40838;50.676;7.838;2023-03-01T13:02:52;7.93;;;4.63;;
54935;SDS011;40838;50.676;7.838;2023-03-01T13:05:29;7.88;;;3.92;;
54935;SDS011;40838;50.676;7.838;2023-03-01T13:08:08;7.85;;;4.03;;
54935;SDS011;40838;50.676;7.838;2023-03-01T13:10:43;7.35;;;4.13;;
54935;SDS011;40838;50.676;7.838;2023-03-01T13:13:20;8.63;;;4.25;;
54935;SDS011;40838;50.676;7.838;2023-03-01T13:15:48;6.47;;;3.97;;
54935;SDS011;40838;50.676;7.838;2023-03-01T13:18:32;5.15;;;3.47;;
54935;SDS011;40838;50.676;7.838;2023-03-01T13:21:00;10.85;;;4.13;;
54935;SDS011;40838;50.676;7.838;2023-03-01T13:23:31;7.93;;;3.90;;
54935;SDS011;40838;50.676;7.838;2023-03-01T13:26:03;11.05;;;5.20;;
54935;SDS011;40838;50.676;7.838;2023-03-01T13:34:42;5.22;;;3.28;;
54935;SDS011;40838;50.676;7.838;2023-03-01T13:37:18;6.25;;;3.33;;
54935;SDS011;40838;50.676;7.838;2023-03-01T13:39:51;6.57;;;3.40;;
54935;SDS011;40838;50.676;7.838;2023-03-01T13:42:30;8.63;;;4.10;;
54935;SDS011;40838;50.676;7.838;2023-03-01T13:45:01;7.95;;;4.05;;
54935;SDS011;40838;50.676;7.838;2023-03-01T13:47:29;8.65;;;4.63;;
54935;SDS011;40838;50.676;7.838;2023-03-01T13:50:00;4.85;;;3.17;;
54935;SDS011;40838;50.676;7.838;2023-03-01T13:52:38;7.22;;;3.92;;
54935;SDS011;40838;50.676;7.838;2023-03-01T13:55:14;6.05;;;4.10;;
54935;SDS011;40838;50.676;7.838;2023-03-01T13:57:47;8.82;;;4.25;;
54935;SDS011;40838;50.676;7.838;2023-03-01T14:00:30;6.07;;;4.07;;
54935;SDS011;40838;50.676;7.838;2023-03-01T14:03:08;9.90;;;4.45;;
54935;SDS011;40838;50.676;7.838;2023-03-01T14:05:38;10.90;;;4.78;;
54935;SDS011;40838;50.676;7.838;2023-03-01T14:08:17;6.07;;;3.72;;
54935;SDS011;40838;50.676;7.838;2023-03-01T14:10:49;6.20;;;4.05;;
54935;SDS011;40838;50.676;7.838;2023-03-01T14:13:25;6.00;;;4.13;;
54935;SDS011;40838;50.676;7.838;2023-03-01T14:16:08;9.13;;;4.03;;
54935;SDS011;40838;50.676;7.838;2023-03-01T14:18:43;8.90;;;4.38;;
54935;SDS011;40838;50.676;7.838;2023-03-01T14:21:18;7.18;;;4.07;;
54935;SDS011;40838;50.676;7.838;2023-03-01T14:23:47;7.60;;;4.07;;
54935;SDS011;40838;50.676;7.838;2023-03-01T14:26:20;6.35;;;3.78;;
54935;SDS011;40838;50.676;7.838;2023-03-01T14:28:47;10.23;;;4.20;;
54935;SDS011;40838;50.676;7.838;2023-03-01T14:31:34;6.63;;;4.38;;
54935;SDS011;40838;50.676;7.838;2023-03-01T14:34:03;11.02;;;5.07;;
54935;SDS011;40838;50.676;7.838;2023-03-01T14:36:31;8.43;;;4.03;;
54935;SDS011;40838;50.676;7.838;2023-03-01T14:39:00;5.50;;;3.30;;
54935;SDS011;40838;50.676;7.838;2023-03-01T14:41:31;6.00;;;3.67;;
54935;SDS011;40838;50.676;7.838;2023-03-01T14:44:01;5.70;;;3.67;;
54935;SDS011;40838;50.676;7.838;2023-03-01T14:46:35;11.20;;;5.00;;
54935;SDS011;40838;50.676;7.838;2023-03-01T14:49:05;7.82;;;4.18;;
54935;SDS011;40838;50.676;7.838;2023-03-01T14:51:36;6.25;;;3.67;;
54935;SDS011;40838;50.676;7.838;2023-03-01T14:54:10;8.95;;;4.03;;
54935;SDS011;40838;50.676;7.838;2023-03-01T14:56:50;7.35;;;4.40;;
54935;SDS011;40838;50.676;7.838;2023-03-01T14:59:21;7.40;;;4.00;;
54935;SDS011;40838;50.676;7.838;2023-03-01T15:01:51;8.35;;;4.43;;
54935;SDS011;40838;50.676;7.838;2023-03-01T15:04:22;8.38;;;4.30;;
54935;SDS011;40838;50.676;7.838;2023-03-01T15:06:51;6.35;;;4.43;;
54935;SDS011;40838;50.676;7.838;2023-03-01T15:09:21;8.20;;;4.53;;
54935;SDS011;40838;50.676;7.838;2023-03-01T15:11:49;6.90;;;4.13;;
54935;SDS011;40838;50.676;7.838;2023-03-01T15:14:25;6.57;;;4.18;;
54935;SDS011;40838;50.676;7.838;2023-03-01T15:17:17;8.50;;;4.65;;
54935;SDS011;40838;50.676;7.838;2023-03-01T15:19:52;9.57;;;4.25;;